Miedwie — C6XP5 — position and weather

sailwx.info

Track history (hours):
 
Tides and Currents Weather Stations Pressure Air Temp Water Temp Dewpoint Dewpoint Depression Visibility Wind Speed Wind Dir Waves Ship Positions

Miedwie

Last reported at 2016-Aug-31 04:30 UTC. Time now 2016-Aug-31 06:10 UTC.
Position N 37°31' W 009°45'.

Length 190 m; draft 9.9 m.

Type: Cargo ship. MMSI: 311018300.

Date/timePositionNaut miles runAvg speedWind from/ knotsBaromVisibWave heightAir tempDewpointWater temp
2016-Aug-31 04:30N 37°31' W 009°45'1311.6
2016-Aug-31 03:21N 37°44' W 009°49'1211.7
2016-Aug-31 02:21N 37°55' W 009°53'1012.0
2016-Aug-31 01:33N 38°05' W 009°56'1211.9
2016-Aug-31 00:33N 38°16' W 010°00'1212.2
2016-Aug-30 23:33N 38°28' W 010°04'1212.1
2016-Aug-30 22:33N 38°40' W 010°07'1211.9
2016-Aug-30 21:33N 38°52' W 010°07'1212.0
2016-Aug-30 20:33N 39°04' W 010°06'1212.0
2016-Aug-30 19:32N 39°16' W 010°06'1212.0
2016-Aug-30 18:33N 39°28' W 010°06'1211.8
2016-Aug-30 17:33N 39°40' W 010°05'1211.6
2016-Aug-30 16:33N 39°51' W 010°05'1211.8
2016-Aug-30 15:33N 40°03' W 010°06'  
2016-Aug-28 02:31N 49°48' W 003°27'1010.1
2016-Aug-28 01:33N 49°53' W 003°15'1110.8
2016-Aug-28 00:30N 49°59' W 002°59'1111.7
2016-Aug-27 23:34N 50°03' W 002°43'1312.6
2016-Aug-27 22:33N 50°05' W 002°24'1713.5
2016-Aug-27 21:17N 50°10' W 001°58'4912.0
2016-Aug-27 17:12N 50°23' W 000°44'16 9.7
2016-Aug-27 15:33N 50°28' W 000°20'1010.3
2016-Aug-27 14:34N 50°30' W 000°05'1111.1
2016-Aug-27 13:33N 50°34' E 000°12'4812.0
2016-Aug-27 09:33N 50°59' E 001°17'1110.8
2016-Aug-27 08:33N 51°06' E 001°30'1010.3
2016-Aug-27 07:33N 51°12' E 001°42'1110.5
2016-Aug-27 06:33N 51°21' E 001°51'2412.2
2016-Aug-27 04:33N 51°42' E 002°11'1312.9
2016-Aug-27 03:33N 51°55' E 002°14'1312.7
2016-Aug-27 02:33N 52°07' E 002°07'1212.3
2016-Aug-27 01:33N 52°19' E 001°59'1211.7
2016-Aug-27 00:33N 52°30' E 001°52'6 6.3
2016-Aug-26 23:33N 52°34' E 001°46'  
2016-Aug-24 02:26N 52°35' E 001°44'0 0.0
2016-Aug-23 12:32N 52°35' E 001°44'  
Track history (hours):
 
Tides and Currents Weather Stations Pressure Air Temp Water Temp Dewpoint Dewpoint Depression Visibility Wind Speed Wind Dir Waves Ship Positions

Miedwie

Last reported at 2016-Aug-31 04:30 UTC. Time now 2016-Aug-31 06:10 UTC.
Position N 37°31' W 009°45'.

Length 190 m; draft 9.9 m.

Type: Cargo ship. MMSI: 311018300.

Date/timePositionNaut miles runAvg speedWind from/ knotsBaromVisibWave heightAir tempDewpointWater temp
2016-Aug-31 04:30N 37°31' W 009°45'1311.6
2016-Aug-31 03:21N 37°44' W 009°49'1211.7
2016-Aug-31 02:21N 37°55' W 009°53'1012.0
2016-Aug-31 01:33N 38°05' W 009°56'1211.9
2016-Aug-31 00:33N 38°16' W 010°00'1212.2
2016-Aug-30 23:33N 38°28' W 010°04'1212.1
2016-Aug-30 22:33N 38°40' W 010°07'1211.9
2016-Aug-30 21:33N 38°52' W 010°07'1212.0
2016-Aug-30 20:33N 39°04' W 010°06'1212.0
2016-Aug-30 19:32N 39°16' W 010°06'1212.0
2016-Aug-30 18:33N 39°28' W 010°06'1211.8
2016-Aug-30 17:33N 39°40' W 010°05'1211.6
2016-Aug-30 16:33N 39°51' W 010°05'1211.8
2016-Aug-30 15:33N 40°03' W 010°06'  
2016-Aug-28 02:31N 49°48' W 003°27'1010.1
2016-Aug-28 01:33N 49°53' W 003°15'1110.8
2016-Aug-28 00:30N 49°59' W 002°59'1111.7
2016-Aug-27 23:34N 50°03' W 002°43'1312.6
2016-Aug-27 22:33N 50°05' W 002°24'1713.5
2016-Aug-27 21:17N 50°10' W 001°58'4912.0
2016-Aug-27 17:12N 50°23' W 000°44'16 9.7
2016-Aug-27 15:33N 50°28' W 000°20'1010.3
2016-Aug-27 14:34N 50°30' W 000°05'1111.1
2016-Aug-27 13:33N 50°34' E 000°12'4812.0
2016-Aug-27 09:33N 50°59' E 001°17'1110.8
2016-Aug-27 08:33N 51°06' E 001°30'1010.3
2016-Aug-27 07:33N 51°12' E 001°42'1110.5
2016-Aug-27 06:33N 51°21' E 001°51'2412.2
2016-Aug-27 04:33N 51°42' E 002°11'1312.9
2016-Aug-27 03:33N 51°55' E 002°14'1312.7
2016-Aug-27 02:33N 52°07' E 002°07'1212.3
2016-Aug-27 01:33N 52°19' E 001°59'1211.7
2016-Aug-27 00:33N 52°30' E 001°52'6 6.3
2016-Aug-26 23:33N 52°34' E 001°46'  
2016-Aug-24 02:26N 52°35' E 001°44'0 0.0
2016-Aug-23 12:32N 52°35' E 001°44'  

Dump ship's entire track history